Eden Prairie, Minnesota
Current Conditions -  °F | °C
As of 3:53 AM on Thursday 23 Oct 2014 (Local Time) from KFCM Reporting Station
Overcast Overcast  
Wind Chill: 52°   Ceiling: 1200
Heat Index: 52°   Visibility: 10mi
Dew Point: 50°   Wind: 8mph
Humidity: 93%   Direction: 180°S
Pressure: 29.98"   Gusts: NA
Location:  44.86°N, 93.46°W
Report Text: KFCM 230853Z AUTO 18007KT 10SM OVC012 11/10 A2998 RMK AO2 RAE22 SLP154 P0001 60004 T01110100 58005
Loading
Personal Weather Stations






























Interactive Weather Map
Tropical Storm Tracking
New forecast layout! Learn more

10-Day Weather Forecast

Advertisements
Track Severe Weather on mobile